createdAt,value
2016-02-10T00:00:05.947Z,5.29
2016-02-10T00:01:05.933Z,5.3
2016-02-10T00:02:05.905Z,5.25
2016-02-10T00:03:05.861Z,5.29
2016-02-10T00:04:05.847Z,5.3
2016-02-10T00:05:05.819Z,5.3
2016-02-10T00:06:05.776Z,5.29
2016-02-10T00:07:05.747Z,5.39
2016-02-10T00:08:05.737Z,5.25
2016-02-10T00:09:05.708Z,5.32
2016-02-10T00:10:05.663Z,5.35
2016-02-10T00:11:05.651Z,5.29
2016-02-10T00:12:05.608Z,5.29
2016-02-10T00:13:05.594Z,5.28
2016-02-10T00:14:05.581Z,5.29
2016-02-10T00:15:05.537Z,5.32
2016-02-10T00:16:05.494Z,5.32
2016-02-10T00:17:05.470Z,5.32
2016-02-10T00:18:05.458Z,5.32
2016-02-10T00:19:05.429Z,5.3
2016-02-10T00:20:05.384Z,5.29
2016-02-10T00:21:05.372Z,5.35
2016-02-10T00:22:05.328Z,5.38
2016-02-10T00:23:05.299Z,5.41
2016-02-10T00:24:05.286Z,5.39
2016-02-10T00:25:05.246Z,5.39
2016-02-10T00:26:05.217Z,5.38
2016-02-10T00:27:05.205Z,5.41
2016-02-10T00:28:05.160Z,5.35
2016-02-10T00:29:05.131Z,5.3
2016-02-10T00:30:05.103Z,5.29
2016-02-10T00:31:05.090Z,5.25
2016-02-10T00:32:05.061Z,5.29
2016-02-10T00:33:05.019Z,5.33
2016-02-10T00:34:04.849Z,5.29
2016-02-10T00:35:04.977Z,5.26
2016-02-10T00:36:04.948Z,5.32
2016-02-10T00:37:04.920Z,5.3
2016-02-10T00:38:04.891Z,5.29
2016-02-10T00:39:04.862Z,5.25
2016-02-10T00:40:04.837Z,5.15
2016-02-10T00:41:04.809Z,5.25
2016-02-10T00:42:04.779Z,5.1
2016-02-10T00:43:04.752Z,5.11
2016-02-10T00:44:04.723Z,5.15
2016-02-10T00:45:04.694Z,5.2
2016-02-10T00:46:04.666Z,5.15
2016-02-10T00:47:04.637Z,5.17
2016-02-10T00:48:04.609Z,5.11
2016-02-10T00:49:04.581Z,5.1
2016-02-10T00:50:04.551Z,5.1
2016-02-10T00:51:04.523Z,5.1
2016-02-10T00:52:04.495Z,5.04
2016-02-10T00:53:04.466Z,5.05
2016-02-10T00:54:04.436Z,5.04
2016-02-10T00:55:04.409Z,5.08
2016-02-10T00:56:04.380Z,5.02
2016-02-10T00:57:04.352Z,5.02
2016-02-10T00:58:04.323Z,5.08
2016-02-10T00:59:04.294Z,4.99
2016-02-10T01:00:04.266Z,4.94
2016-02-10T01:01:04.253Z,4.97
2016-02-10T01:02:04.208Z,4.94
2016-02-10T01:03:04.180Z,4.93
2016-02-10T01:04:04.152Z,4.96
2016-02-10T01:05:04.124Z,4.9
2016-02-10T01:06:04.094Z,4.94
2016-02-10T01:07:04.065Z,4.89
2016-02-10T01:08:04.038Z,4.87
2016-02-10T01:09:04.009Z,4.89
2016-02-10T01:10:03.981Z,4.93
2016-02-10T01:11:03.954Z,4.86
2016-02-10T01:12:03.925Z,4.92
2016-02-10T01:13:03.897Z,4.96
2016-02-10T01:14:03.868Z,4.92
2016-02-10T01:15:03.839Z,4.93
2016-02-10T01:16:03.826Z,4.92
2016-02-10T01:17:03.783Z,4.97
2016-02-10T01:18:03.769Z,4.87
2016-02-10T01:19:03.725Z,4.93
2016-02-10T01:20:03.697Z,4.87
2016-02-10T01:21:03.668Z,4.84
2016-02-10T01:22:03.656Z,4.82
2016-02-10T01:23:03.611Z,4.9
2016-02-10T01:24:03.582Z,4.8
2016-02-10T01:25:03.569Z,4.78
2016-02-10T01:26:03.544Z,4.78
2016-02-10T01:27:03.500Z,4.78
2016-02-10T01:28:03.471Z,4.78
2016-02-10T01:29:03.442Z,4.84
2016-02-10T01:30:03.414Z,4.86
2016-02-10T01:31:03.385Z,4.8
2016-02-10T01:32:03.357Z,4.78
2016-02-10T01:33:03.328Z,4.75
2016-02-10T01:34:03.300Z,4.75
2016-02-10T01:35:03.273Z,4.75
2016-02-10T01:36:03.244Z,4.74
2016-02-10T01:37:03.215Z,4.66
2016-02-10T01:38:03.186Z,4.7
2016-02-10T01:39:02.424Z,4.74
2016-02-10T01:40:03.129Z,4.78
2016-02-10T01:41:03.114Z,4.74
2016-02-10T01:42:03.070Z,4.71
2016-02-10T01:43:03.042Z,4.73
2016-02-10T01:44:03.015Z,4.77
2016-02-10T01:45:02.985Z,4.77
2016-02-10T01:46:02.956Z,4.71
2016-02-10T01:47:02.913Z,4.74
2016-02-10T01:48:02.900Z,4.75
2016-02-10T01:49:02.870Z,4.71
2016-02-10T01:50:02.843Z,4.82
2016-02-10T01:51:02.815Z,4.75
2016-02-10T01:52:02.787Z,4.68
2016-02-10T01:53:02.758Z,4.82
2016-02-10T01:54:02.729Z,4.82
2016-02-10T01:55:02.701Z,4.84
2016-02-10T01:56:02.672Z,4.84
2016-02-10T01:57:02.643Z,4.86
2016-02-10T01:58:02.599Z,4.78
2016-02-10T01:59:02.572Z,4.93
2016-02-10T02:00:02.574Z,4.86
2016-02-10T02:01:02.530Z,4.93
2016-02-10T02:02:02.487Z,4.93
2016-02-10T02:03:02.457Z,4.92
2016-02-10T02:04:02.445Z,4.93
2016-02-10T02:05:02.401Z,4.97
2016-02-10T02:06:02.372Z,4.99
2016-02-10T02:07:02.359Z,4.99
2016-02-10T02:08:02.317Z,4.97
2016-02-10T02:09:02.304Z,4.94
2016-02-10T02:10:02.276Z,4.97
2016-02-10T02:11:02.231Z,4.97
2016-02-10T02:12:02.205Z,4.99
2016-02-10T02:13:02.191Z,4.9
2016-02-10T02:14:02.147Z,4.93
2016-02-10T02:15:02.135Z,4.97
2016-02-10T02:16:02.106Z,4.97
2016-02-10T02:17:02.077Z,5
2016-02-10T02:18:02.033Z,4.99
2016-02-10T02:19:02.004Z,4.97
2016-02-10T02:20:01.992Z,5.05
2016-02-10T02:21:01.963Z,5.05
2016-02-10T02:22:01.918Z,5
2016-02-10T02:23:01.906Z,5.1
2016-02-10T02:24:01.878Z,5.02
2016-02-10T02:25:01.848Z,5.11
2016-02-10T02:26:01.820Z,5.08
2016-02-10T02:27:01.793Z,5.08
2016-02-10T02:28:01.748Z,5.04
2016-02-10T02:29:01.735Z,5.05
2016-02-10T02:30:01.707Z,5.08
2016-02-10T02:31:01.679Z,5.02
2016-02-10T02:32:01.651Z,5.05
2016-02-10T02:33:01.621Z,5.1
2016-02-10T02:34:01.452Z,5.12
2016-02-10T02:35:01.408Z,5.08
2016-02-10T02:36:01.536Z,5.08
2016-02-10T02:37:01.522Z,5.11
2016-02-10T02:38:01.479Z,5.14
2016-02-10T02:39:01.450Z,5.11
2016-02-10T02:40:01.422Z,5.14
2016-02-10T02:41:01.393Z,5.12
2016-02-10T02:42:01.364Z,5.17
2016-02-10T02:43:01.338Z,5.18
2016-02-10T02:44:01.310Z,5.12
2016-02-10T02:45:01.281Z,5.15
2016-02-10T02:46:01.253Z,5.12
2016-02-10T02:47:01.225Z,5.11
2016-02-10T02:48:01.195Z,5.12
2016-02-10T02:49:01.167Z,5.08
2016-02-10T02:50:01.139Z,5.18
2016-02-10T02:51:01.110Z,5.12
2016-02-10T02:52:01.083Z,5.12
2016-02-10T02:53:01.082Z,5.11
2016-02-10T02:54:01.013Z,5.11
2016-02-10T02:55:00.973Z,5.15
2016-02-10T02:56:00.932Z,5.08
2016-02-10T02:57:00.893Z,5.07
2016-02-10T02:58:00.855Z,5.1
2016-02-10T02:59:00.822Z,5.1
2016-02-10T03:00:00.790Z,5.1
2016-02-10T03:01:00.774Z,5
2016-02-10T03:02:00.726Z,5.04
2016-02-10T03:03:00.693Z,5.04
2016-02-10T03:04:00.507Z,5.02
2016-02-10T03:05:00.632Z,5.02
2016-02-10T03:06:00.603Z,5.08
2016-02-10T03:07:00.635Z,5.08
2016-02-10T03:08:00.542Z,5.1
2016-02-10T03:09:00.515Z,5.02
2016-02-10T03:10:00.502Z,4.97
2016-02-10T03:11:00.457Z,5.07
2016-02-10T03:12:00.428Z,5.14
2016-02-10T03:13:00.415Z,5
2016-02-10T03:14:00.377Z,5.04
2016-02-10T03:15:00.364Z,5.07
2016-02-10T03:16:00.319Z,4.92
2016-02-10T03:17:00.308Z,4.94
2016-02-10T03:18:00.263Z,4.87
2016-02-10T03:19:00.233Z,4.82
2016-02-10T03:20:00.206Z,4.82
2016-02-10T03:21:00.180Z,4.73
2016-02-10T03:22:00.151Z,4.7
2016-02-10T03:23:00.122Z,4.75
2016-02-10T03:24:00.094Z,4.66
2016-02-10T03:25:00.065Z,4.55
2016-02-10T03:26:00.037Z,4.5
2016-02-10T03:27:00.008Z,4.49
2016-02-10T03:27:59.980Z,4.49
2016-02-10T03:28:59.951Z,4.53
2016-02-10T03:29:59.923Z,4.49
2016-02-10T03:30:59.893Z,4.37
2016-02-10T03:31:59.866Z,4.35
2016-02-10T03:32:59.837Z,4.4
2016-02-10T03:33:59.808Z,4.32
2016-02-10T03:34:59.780Z,4.32
2016-02-10T03:35:59.751Z,4.35
2016-02-10T03:36:59.723Z,4.28
2016-02-10T03:37:59.695Z,4.31
2016-02-10T03:38:59.681Z,4.28
2016-02-10T03:39:59.637Z,4.34
2016-02-10T03:40:59.609Z,4.3
2016-02-10T03:41:59.580Z,4.28
2016-02-10T03:42:59.567Z,4.28
2016-02-10T03:43:59.545Z,4.31
2016-02-10T03:44:59.500Z,4.32
2016-02-10T03:45:59.471Z,4.24
2016-02-10T03:46:59.443Z,4.28
2016-02-10T03:47:59.398Z,4.28
2016-02-10T03:48:59.387Z,4.28
2016-02-10T03:49:59.358Z,4.32
2016-02-10T03:50:59.315Z,4.32
2016-02-10T03:51:59.286Z,4.35
2016-02-10T03:52:59.274Z,4.34
2016-02-10T03:53:59.244Z,4.42
2016-02-10T03:54:59.201Z,4.45
2016-02-10T03:55:59.188Z,4.41
2016-02-10T03:56:59.143Z,4.41
2016-02-10T03:57:59.130Z,4.45
2016-02-10T03:58:59.102Z,4.45
2016-02-10T03:59:58.933Z,4.49
2016-02-10T04:00:59.029Z,4.53
2016-02-10T04:01:59.001Z,4.53
2016-02-10T04:02:58.973Z,4.52
2016-02-10T04:03:58.959Z,4.45
2016-02-10T04:04:58.915Z,4.6
2016-02-10T04:05:58.886Z,4.52
2016-02-10T04:06:58.859Z,4.53
2016-02-10T04:07:58.829Z,4.56
2016-02-10T04:08:58.817Z,4.62
2016-02-10T04:09:58.774Z,4.55
2016-02-10T04:10:58.745Z,4.56
2016-02-10T04:11:58.732Z,4.6
2016-02-10T04:12:58.703Z,4.75
2016-02-10T04:13:58.659Z,4.7
2016-02-10T04:14:58.631Z,4.67
2016-02-10T04:15:58.603Z,4.67
2016-02-10T04:16:58.591Z,4.63
2016-02-10T04:17:58.547Z,4.73
2016-02-10T04:18:58.518Z,4.67
2016-02-10T04:19:58.505Z,4.67
2016-02-10T04:20:58.461Z,4.74
2016-02-10T04:21:58.433Z,4.68
2016-02-10T04:22:58.420Z,4.73
2016-02-10T04:23:58.375Z,4.71
2016-02-10T04:24:58.347Z,4.82
2016-02-10T04:25:58.324Z,4.71
2016-02-10T04:26:58.294Z,4.7
2016-02-10T04:27:58.266Z,4.86
2016-02-10T04:28:58.253Z,4.74
2016-02-10T04:29:58.209Z,4.8
2016-02-10T04:30:58.165Z,4.82
2016-02-10T04:31:58.152Z,4.86
2016-02-10T04:32:58.123Z,4.82
2016-02-10T04:33:58.095Z,4.82
2016-02-10T04:34:58.065Z,4.89
2016-02-10T04:35:58.038Z,4.9
2016-02-10T04:36:58.009Z,4.9
2016-02-10T04:37:57.981Z,4.86
2016-02-10T04:38:57.952Z,4.8
2016-02-10T04:39:57.923Z,4.96
2016-02-10T04:40:57.895Z,4.97
2016-02-10T04:41:57.867Z,4.93
2016-02-10T04:42:57.838Z,4.93
2016-02-10T04:43:57.810Z,4.94
2016-02-10T04:44:57.781Z,4.93
2016-02-10T04:45:57.757Z,4.93
2016-02-10T04:46:57.728Z,4.93
2016-02-10T04:47:57.700Z,4.94
2016-02-10T04:48:57.671Z,4.96
2016-02-10T04:49:57.658Z,4.97
2016-02-10T04:50:57.614Z,4.94
2016-02-10T04:51:57.585Z,4.99
2016-02-10T04:52:57.572Z,4.96
2016-02-10T04:53:57.529Z,4.96
2016-02-10T04:54:57.500Z,4.96
2016-02-10T04:55:57.473Z,4.93
2016-02-10T04:56:57.444Z,4.93
2016-02-10T04:57:57.414Z,4.96
2016-02-10T04:58:57.386Z,4.96
2016-02-10T04:59:57.358Z,5
2016-02-10T05:00:57.330Z,4.99
2016-02-10T05:01:57.300Z,4.97
2016-02-10T05:02:57.336Z,4.99
2016-02-10T05:03:57.244Z,4.93
2016-02-10T05:04:57.217Z,4.97
2016-02-10T05:05:57.187Z,4.99
2016-02-10T05:06:57.158Z,4.93
2016-02-10T05:07:57.131Z,4.93
2016-02-10T05:08:57.102Z,4.93
2016-02-10T05:09:57.073Z,4.87
2016-02-10T05:10:57.048Z,4.87
2016-02-10T05:11:57.019Z,4.92
2016-02-10T05:12:56.991Z,4.99
2016-02-10T05:13:56.962Z,4.89
2016-02-10T05:14:56.933Z,4.87
2016-02-10T05:15:56.920Z,4.8
2016-02-10T05:16:56.877Z,4.8
2016-02-10T05:17:56.839Z,4.68
2016-02-10T05:18:56.826Z,4.75
2016-02-10T05:19:56.798Z,4.73
2016-02-10T05:20:56.768Z,4.75
2016-02-10T05:21:56.741Z,4.71
2016-02-10T05:22:56.712Z,4.73
2016-02-10T05:23:56.683Z,4.67
2016-02-10T05:24:56.654Z,4.59
2016-02-10T05:25:56.626Z,4.53
2016-02-10T05:26:56.597Z,4.66
2016-02-10T05:27:56.554Z,4.62
2016-02-10T05:28:56.541Z,4.58
2016-02-10T05:29:56.512Z,4.6
2016-02-10T05:30:56.485Z,4.63
2016-02-10T05:31:56.440Z,4.6
2016-02-10T05:32:56.426Z,4.52
2016-02-10T05:33:56.384Z,4.53
2016-02-10T05:34:56.370Z,4.56
2016-02-10T05:35:56.326Z,4.56
2016-02-10T05:36:56.314Z,4.55
2016-02-10T05:37:56.270Z,4.52
2016-02-10T05:38:56.258Z,4.55
2016-02-10T05:39:56.230Z,4.53
2016-02-10T05:40:56.185Z,4.49
2016-02-10T05:41:56.171Z,4.52
2016-02-10T05:42:56.128Z,4.53
2016-02-10T05:43:56.115Z,4.52
2016-02-10T05:44:56.085Z,4.5
2016-02-10T05:45:56.058Z,4.53
2016-02-10T05:46:56.029Z,4.45
2016-02-10T05:47:55.987Z,4.49
2016-02-10T05:48:55.959Z,4.52
2016-02-10T05:49:55.929Z,4.53
2016-02-10T05:50:55.901Z,4.5
2016-02-10T05:51:55.872Z,4.52
2016-02-10T05:52:55.859Z,4.52
2016-02-10T05:53:55.816Z,4.44
2016-02-10T05:54:55.787Z,4.5
2016-02-10T05:55:55.759Z,4.49
2016-02-10T05:56:55.730Z,4.48
2016-02-10T05:57:55.701Z,4.52
2016-02-10T05:58:55.673Z,4.49
2016-02-10T05:59:55.644Z,4.5
2016-02-10T06:00:55.616Z,4.5
2016-02-10T06:01:55.586Z,4.49
2016-02-10T06:02:55.559Z,4.5
2016-02-10T06:03:55.531Z,4.53
2016-02-10T06:04:55.503Z,4.52
2016-02-10T06:05:55.473Z,4.53
2016-02-10T06:06:55.445Z,4.52
2016-02-10T06:07:55.417Z,4.49
2016-02-10T06:08:55.388Z,4.53
2016-02-10T06:09:55.359Z,4.52
2016-02-10T06:10:55.331Z,4.55
2016-02-10T06:11:55.305Z,4.6
2016-02-10T06:12:55.277Z,4.53
2016-02-10T06:13:55.247Z,4.62
2016-02-10T06:14:55.219Z,4.5
2016-02-10T06:15:55.193Z,4.56
2016-02-10T06:16:55.164Z,4.58
2016-02-10T06:17:55.135Z,4.6
2016-02-10T06:18:55.106Z,4.53
2016-02-10T06:19:55.079Z,4.6
2016-02-10T06:20:55.051Z,4.6
2016-02-10T06:21:55.022Z,4.5
2016-02-10T06:22:54.993Z,4.49
2016-02-10T06:23:54.964Z,4.56
2016-02-10T06:24:54.937Z,4.5
2016-02-10T06:25:54.907Z,4.52
2016-02-10T06:26:54.879Z,4.62
2016-02-10T06:27:54.851Z,4.53
2016-02-10T06:28:54.823Z,4.56
2016-02-10T06:29:54.794Z,4.59
2016-02-10T06:30:54.749Z,4.49
2016-02-10T06:31:54.721Z,4.55
2016-02-10T06:32:54.709Z,4.62
2016-02-10T06:33:54.665Z,4.56
2016-02-10T06:34:54.635Z,4.55
2016-02-10T06:35:54.623Z,4.55
2016-02-10T06:36:54.579Z,4.53
2016-02-10T06:37:54.565Z,4.48
2016-02-10T06:38:54.537Z,4.5
2016-02-10T06:39:54.493Z,4.48
2016-02-10T06:40:54.464Z,4.42
2016-02-10T06:41:54.451Z,4.41
2016-02-10T06:42:54.407Z,4.44
2016-02-10T06:43:54.378Z,4.45
2016-02-10T06:44:54.367Z,4.49
2016-02-10T06:45:54.337Z,4.41
2016-02-10T06:46:54.309Z,4.48
2016-02-10T06:47:54.267Z,4.37
2016-02-10T06:48:54.239Z,4.37
2016-02-10T06:49:54.226Z,4.38
2016-02-10T06:50:54.198Z,4.32
2016-02-10T06:51:54.153Z,4.23
2016-02-10T06:52:54.124Z,4.26
2016-02-10T06:53:54.097Z,4.3
2016-02-10T06:54:54.084Z,4.31
2016-02-10T06:55:54.040Z,4.3
2016-02-10T06:56:54.012Z,4.32
2016-02-10T06:57:53.999Z,4.3
2016-02-10T06:58:53.955Z,4.24
2016-02-10T06:59:53.927Z,4.34
2016-02-10T07:00:53.898Z,4.28
2016-02-10T07:01:53.885Z,4.35
2016-02-10T07:02:53.840Z,4.24
2016-02-10T07:03:53.813Z,4.24
2016-02-10T07:04:53.786Z,4.26
2016-02-10T07:05:53.757Z,4.26
2016-02-10T07:06:53.729Z,4.32
2016-02-10T07:07:53.700Z,4.3
2016-02-10T07:08:53.672Z,4.19
2016-02-10T07:09:53.644Z,4.16
2016-02-10T07:10:53.615Z,4.2
2016-02-10T07:11:53.585Z,4.2
2016-02-10T07:12:53.560Z,4.2
2016-02-10T07:13:53.515Z,4.2
2016-02-10T07:14:53.502Z,4.23
2016-02-10T07:15:53.474Z,4.19
2016-02-10T07:16:53.445Z,4.08
2016-02-10T07:17:53.401Z,4.05
2016-02-10T07:18:53.379Z,4.14
2016-02-10T07:19:53.351Z,4.01
2016-02-10T07:20:53.322Z,4.06
2016-02-10T07:21:53.200Z,4.13
2016-02-10T07:22:53.264Z,4.1
2016-02-10T07:23:53.236Z,4.04
2016-02-10T07:24:53.208Z,4.08
2016-02-10T07:25:53.179Z,4.05
2016-02-10T07:26:53.150Z,4.05
2016-02-10T07:27:53.122Z,4.02
2016-02-10T07:28:53.093Z,4.02
2016-02-10T07:29:53.050Z,4.05
2016-02-10T07:30:53.037Z,4.04
2016-02-10T07:31:53.009Z,4.02
2016-02-10T07:32:52.980Z,4.04
2016-02-10T07:33:52.936Z,4.01
2016-02-10T07:34:52.908Z,4.01
2016-02-10T07:35:52.894Z,4.08
2016-02-10T07:36:52.866Z,3.99
2016-02-10T07:37:52.824Z,3.98
2016-02-10T07:38:52.920Z,3.95
2016-02-10T07:39:52.766Z,3.91
2016-02-10T07:40:52.754Z,4.04
2016-02-10T07:41:52.709Z,3.88
2016-02-10T07:42:52.681Z,3.94
2016-02-10T07:43:52.668Z,3.96
2016-02-10T07:44:52.624Z,3.86
2016-02-10T07:45:52.596Z,3.92
2016-02-10T07:46:52.583Z,3.91
2016-02-10T07:47:52.539Z,3.94
2016-02-10T07:48:52.510Z,3.87
2016-02-10T07:49:52.482Z,3.88
2016-02-10T07:50:52.454Z,3.96
2016-02-10T07:51:52.426Z,4.04
2016-02-10T07:52:52.397Z,3.95
2016-02-10T07:53:52.369Z,4.02
2016-02-10T07:54:52.341Z,4.04
2016-02-10T07:55:52.390Z,4.08
2016-02-10T07:56:52.283Z,3.98
2016-02-10T07:57:52.254Z,3.95
2016-02-10T07:58:52.226Z,4.02
2016-02-10T07:59:52.196Z,4.02
2016-02-10T08:00:52.154Z,4.05
2016-02-10T08:01:52.531Z,4.1
2016-02-10T08:02:52.098Z,4.1
2016-02-10T08:03:52.101Z,4.12
2016-02-10T08:04:52.041Z,4.12
2016-02-10T08:05:52.014Z,4.06
2016-02-10T08:06:51.986Z,4.13
2016-02-10T08:07:51.972Z,4.1
2016-02-10T08:08:51.928Z,4.05
2016-02-10T08:09:51.900Z,4.1
2016-02-10T08:10:51.872Z,4.12
2016-02-10T08:11:51.843Z,4.08
2016-02-10T08:12:51.846Z,4.13
2016-02-10T08:13:51.848Z,4.04
2016-02-10T08:14:51.760Z,4.05
2016-02-10T08:15:51.732Z,4.06
2016-02-10T08:16:51.735Z,4.06
2016-02-10T08:17:51.674Z,4.02
2016-02-10T08:18:51.646Z,4.13
2016-02-10T08:19:51.623Z,4.17
2016-02-10T08:20:51.593Z,4.17
2016-02-10T08:21:51.549Z,4.05
2016-02-10T08:22:51.538Z,4.02
2016-02-10T08:23:51.509Z,4.06
2016-02-10T08:24:51.465Z,4.08
2016-02-10T08:25:51.468Z,4.1
2016-02-10T08:26:51.407Z,4.06
2016-02-10T08:27:51.379Z,4.04
2016-02-10T08:28:51.352Z,4.04
2016-02-10T08:29:51.338Z,4.14
2016-02-10T08:30:51.561Z,4.13
2016-02-10T08:31:51.282Z,4.17
2016-02-10T08:32:51.316Z,4.13
2016-02-10T08:33:51.210Z,4.22
2016-02-10T08:34:51.197Z,4.19
2016-02-10T08:35:51.152Z,4.2
2016-02-10T08:36:51.125Z,4.17
2016-02-10T08:37:51.111Z,4.2
2016-02-10T08:38:51.067Z,4.19
2016-02-10T08:39:51.040Z,4.24
2016-02-10T08:40:51.011Z,4.28
2016-02-10T08:41:50.997Z,4.16
2016-02-10T08:42:50.953Z,4.22
2016-02-10T08:43:50.940Z,4.3
2016-02-10T08:44:50.898Z,4.22
2016-02-10T08:45:50.884Z,4.23
2016-02-10T08:46:50.840Z,4.28
2016-02-10T08:47:50.827Z,4.32
2016-02-10T08:48:50.784Z,4.28
2016-02-10T08:49:50.871Z,4.3
2016-02-10T08:50:51.077Z,4.28
2016-02-10T08:51:50.704Z,4.38
2016-02-10T08:52:50.675Z,4.38
2016-02-10T08:53:50.632Z,4.35
2016-02-10T08:54:50.619Z,4.35
2016-02-10T08:55:50.575Z,4.34
2016-02-10T08:56:50.562Z,4.41
2016-02-10T08:57:50.534Z,4.32
2016-02-10T08:58:50.506Z,4.34
2016-02-10T08:59:50.477Z,4.35
2016-02-10T09:00:50.448Z,4.38
2016-02-10T09:01:50.421Z,4.38
2016-02-10T09:02:50.407Z,4.4
2016-02-10T09:03:50.364Z,4.4
2016-02-10T09:04:50.334Z,4.49
2016-02-10T09:05:50.307Z,4.42
2016-02-10T09:06:50.278Z,4.41
2016-02-10T09:07:50.296Z,4.41
2016-02-10T09:08:50.220Z,4.41
2016-02-10T09:09:50.192Z,4.48
2016-02-10T09:10:50.148Z,4.53
2016-02-10T09:11:50.135Z,4.5
2016-02-10T09:12:50.106Z,4.55
2016-02-10T09:13:50.078Z,4.62
2016-02-10T09:14:50.051Z,4.56
2016-02-10T09:15:50.022Z,4.66
2016-02-10T09:16:49.993Z,4.6
2016-02-10T09:17:49.964Z,4.59
2016-02-10T09:18:49.936Z,4.75
2016-02-10T09:19:49.908Z,4.66
2016-02-10T09:20:49.867Z,4.63
2016-02-10T09:21:49.855Z,4.68
2016-02-10T09:22:49.811Z,4.67
2016-02-10T09:23:49.782Z,4.71
2016-02-10T09:24:49.769Z,4.67
2016-02-10T09:25:49.741Z,4.68
2016-02-10T09:26:49.713Z,4.68
2016-02-10T09:27:50.075Z,4.75
2016-02-10T09:28:49.733Z,4.8
2016-02-10T09:29:49.626Z,4.82
2016-02-10T09:30:49.599Z,4.92
2016-02-10T09:31:49.569Z,4.92
2016-02-10T09:32:49.542Z,4.86
2016-02-10T09:33:49.514Z,4.84
2016-02-10T09:34:49.485Z,4.84
2016-02-10T09:35:49.472Z,4.94
2016-02-10T09:36:49.428Z,5.02
2016-02-10T09:37:49.399Z,5.05
2016-02-10T09:38:49.371Z,5.02
2016-02-10T09:39:49.341Z,5.15
2016-02-10T09:40:49.314Z,5.14
2016-02-10T09:41:49.286Z,5.1
2016-02-10T09:42:49.257Z,5.25
2016-02-10T09:43:49.244Z,5.2
2016-02-10T09:44:49.216Z,5.3
2016-02-10T09:45:49.188Z,5.29
2016-02-10T09:46:49.158Z,5.28
2016-02-10T09:47:49.130Z,5.33
2016-02-10T09:48:49.103Z,5.25
2016-02-10T09:49:49.091Z,5.29
2016-02-10T09:50:49.063Z,5.33
2016-02-10T09:51:49.018Z,5.32
2016-02-10T09:52:48.989Z,5.3
2016-02-10T09:53:48.963Z,5.33
2016-02-10T09:54:48.934Z,5.3
2016-02-10T09:55:48.922Z,5.29
2016-02-10T09:56:48.878Z,5.28
2016-02-10T09:57:48.877Z,5.33
2016-02-10T09:58:48.817Z,5.43
2016-02-10T09:59:48.820Z,5.46
2016-02-10T10:00:48.775Z,5.48
2016-02-10T10:01:48.778Z,5.46
2016-02-10T10:02:48.718Z,5.48
2016-02-10T10:03:48.705Z,5.44
2016-02-10T10:04:48.676Z,5.59
2016-02-10T10:05:48.634Z,5.54
2016-02-10T10:06:48.605Z,5.65
2016-02-10T10:07:48.577Z,5.69
2016-02-10T10:08:48.595Z,5.82
2016-02-10T10:09:48.535Z,5.75
2016-02-10T10:10:48.506Z,5.72
2016-02-10T10:11:48.478Z,5.69
2016-02-10T10:12:48.466Z,5.76
2016-02-10T10:13:48.423Z,5.86
2016-02-10T10:14:48.409Z,5.72
2016-02-10T10:15:48.287Z,5.75
2016-02-10T10:16:48.354Z,5.75
2016-02-10T10:17:48.325Z,5.73
2016-02-10T10:18:48.296Z,5.71
2016-02-10T10:19:48.268Z,5.72
2016-02-10T10:20:48.255Z,5.73
2016-02-10T10:21:48.210Z,5.75
2016-02-10T10:22:48.200Z,5.75
2016-02-10T10:23:48.171Z,5.8
2016-02-10T10:24:48.143Z,5.76
2016-02-10T10:25:48.099Z,5.73
2016-02-10T10:26:48.070Z,5.75
2016-02-10T10:27:48.057Z,5.79
2016-02-10T10:28:48.028Z,5.73
2016-02-10T10:29:48.000Z,5.71
2016-02-10T10:30:47.972Z,5.76
2016-02-10T10:31:47.943Z,5.75
2016-02-10T10:32:47.930Z,5.79
2016-02-10T10:33:47.902Z,5.73
2016-02-10T10:34:47.874Z,5.73
2016-02-10T10:35:47.862Z,5.69
2016-02-10T10:36:47.817Z,5.71
2016-02-10T10:37:47.788Z,5.76
2016-02-10T10:38:47.776Z,5.75
2016-02-10T10:39:47.731Z,5.66
2016-02-10T10:40:47.703Z,5.82
2016-02-10T10:41:47.674Z,5.71
2016-02-10T10:42:47.646Z,5.8
2016-02-10T10:43:47.617Z,5.76
2016-02-10T10:44:47.590Z,5.75
2016-02-10T10:45:47.560Z,5.76
2016-02-10T10:46:47.548Z,5.71
2016-02-10T10:47:47.503Z,5.72
2016-02-10T10:48:47.506Z,5.75
2016-02-10T10:49:47.478Z,5.65
2016-02-10T10:50:47.435Z,5.68
2016-02-10T10:51:47.411Z,5.65
2016-02-10T10:52:47.398Z,5.64
2016-02-10T10:53:47.357Z,5.65
2016-02-10T10:54:47.172Z,5.69
2016-02-10T10:55:47.299Z,5.69
2016-02-10T10:56:47.271Z,5.68
2016-02-10T10:57:47.243Z,5.69
2016-02-10T10:58:47.215Z,5.64
2016-02-10T10:59:47.202Z,5.65
2016-02-10T11:00:47.157Z,5.64
2016-02-10T11:01:47.144Z,5.69
2016-02-10T11:02:47.116Z,5.66
2016-02-10T11:03:47.087Z,5.71
2016-02-10T11:04:47.059Z,5.75
2016-02-10T11:05:47.030Z,5.65
2016-02-10T11:06:47.002Z,5.72
2016-02-10T11:07:46.974Z,5.69
2016-02-10T11:08:46.960Z,5.68
2016-02-10T11:09:46.916Z,5.66
2016-02-10T11:10:46.887Z,5.72
2016-02-10T11:11:46.875Z,5.72
2016-02-10T11:12:46.674Z,5.69
2016-02-10T11:13:46.817Z,5.75
2016-02-10T11:14:46.804Z,5.68
2016-02-10T11:15:46.763Z,5.68
2016-02-10T11:16:46.734Z,5.66
2016-02-10T11:17:46.706Z,5.62
2016-02-10T11:18:46.677Z,5.71
2016-02-10T11:19:46.650Z,5.65
2016-02-10T11:20:46.621Z,5.66
2016-02-10T11:21:46.593Z,5.69
2016-02-10T11:22:46.565Z,5.61
2016-02-10T11:23:46.553Z,5.62
2016-02-10T11:24:46.572Z,5.65
2016-02-10T11:25:46.700Z,5.61
2016-02-10T11:26:46.467Z,5.62
2016-02-10T11:27:46.439Z,5.64
2016-02-10T11:28:46.567Z,5.68
2016-02-10T11:29:46.382Z,5.71
2016-02-10T11:30:46.353Z,5.68
2016-02-10T11:31:46.325Z,5.62
2016-02-10T11:32:46.313Z,5.61
2016-02-10T11:33:46.315Z,5.73
2016-02-10T11:34:46.258Z,5.66
2016-02-10T11:35:46.214Z,5.69
2016-02-10T11:36:46.185Z,5.66
2016-02-10T11:37:46.156Z,5.69
2016-02-10T11:38:46.144Z,5.61
2016-02-10T11:39:46.115Z,5.65
2016-02-10T11:40:46.086Z,5.62
2016-02-10T11:41:46.058Z,5.71
2016-02-10T11:42:46.029Z,5.72
2016-02-10T11:43:46.001Z,5.66
2016-02-10T11:44:45.972Z,5.71
2016-02-10T11:45:45.944Z,5.72
2016-02-10T11:46:45.915Z,5.66
2016-02-10T11:47:45.887Z,5.73
2016-02-10T11:48:45.858Z,5.76
2016-02-10T11:49:45.829Z,5.75
2016-02-10T11:50:45.663Z,5.72
2016-02-10T11:51:45.776Z,5.75
2016-02-10T11:52:45.747Z,5.71
2016-02-10T11:53:45.735Z,5.72
2016-02-10T11:54:45.706Z,5.8
2016-02-10T11:55:45.677Z,5.82
2016-02-10T11:56:45.649Z,5.8
2016-02-10T11:57:45.621Z,5.8
2016-02-10T11:58:45.603Z,5.75
2016-02-10T11:59:45.544Z,5.71
2016-02-10T12:00:45.520Z,5.71
2016-02-10T12:01:45.477Z,5.73
2016-02-10T12:02:45.434Z,5.75
2016-02-10T12:03:45.395Z,5.73
2016-02-10T12:04:45.345Z,5.79
2016-02-10T12:05:45.327Z,5.79
2016-02-10T12:06:45.294Z,5.76
2016-02-10T12:07:45.260Z,5.83
2016-02-10T12:08:45.228Z,5.86
2016-02-10T12:09:45.199Z,5.84
2016-02-10T12:10:45.168Z,5.84
2016-02-10T12:11:45.153Z,5.84
2016-02-10T12:12:45.107Z,5.83
2016-02-10T12:13:45.108Z,5.82
2016-02-10T12:14:45.065Z,5.82
2016-02-10T12:15:45.020Z,5.9
2016-02-10T12:16:45.003Z,5.89
2016-02-10T12:17:44.991Z,5.91
2016-02-10T12:18:44.946Z,5.99
2016-02-10T12:19:44.917Z,5.94
2016-02-10T12:20:44.888Z,5.93
2016-02-10T12:21:44.859Z,5.93
2016-02-10T12:22:44.851Z,5.86
2016-02-10T12:23:44.806Z,5.94
2016-02-10T12:24:44.778Z,5.98
2016-02-10T12:25:44.750Z,5.93
2016-02-10T12:26:44.736Z,5.94
2016-02-10T12:27:44.708Z,5.86
2016-02-10T12:28:44.680Z,6.07
2016-02-10T12:29:44.650Z,5.99
2016-02-10T12:30:44.622Z,6.09
2016-02-10T12:31:44.594Z,6.02
2016-02-10T12:32:44.580Z,5.89
2016-02-10T12:33:44.553Z,5.87
2016-02-10T12:34:44.509Z,6.07
2016-02-10T12:35:44.496Z,5.97
2016-02-10T12:36:44.467Z,5.94
2016-02-10T12:37:44.470Z,6.01
2016-02-10T12:38:44.411Z,6.11
2016-02-10T12:39:44.381Z,6.12
2016-02-10T12:40:44.353Z,6.11
2016-02-10T12:41:44.325Z,6.17
2016-02-10T12:42:44.311Z,6.12
2016-02-10T12:43:44.283Z,6.09
2016-02-10T12:44:44.255Z,6.17
2016-02-10T12:45:44.226Z,6.16
2016-02-10T12:46:44.197Z,6.14
2016-02-10T12:47:44.169Z,6.16
2016-02-10T12:48:44.140Z,6.19
2016-02-10T12:49:44.127Z,6.16
2016-02-10T12:50:44.093Z,6.24
2016-02-10T12:51:44.080Z,6.11
2016-02-10T12:52:44.036Z,6.19
2016-02-10T12:53:44.007Z,6.12
2016-02-10T12:54:43.994Z,6.16
2016-02-10T12:55:43.965Z,6.11
2016-02-10T12:56:43.922Z,6.17
2016-02-10T12:57:43.909Z,6.16
2016-02-10T12:58:43.880Z,6.24
2016-02-10T12:59:43.851Z,6.16
2016-02-10T13:00:43.823Z,6.17
2016-02-10T13:01:43.795Z,6.16
2016-02-10T13:02:43.783Z,6.14
2016-02-10T13:03:43.738Z,6.19
2016-02-10T13:04:43.725Z,6.12
2016-02-10T13:05:43.697Z,6.24
2016-02-10T13:06:43.684Z,6.22
2016-02-10T13:07:43.639Z,6.24
2016-02-10T13:08:43.611Z,6.26
2016-02-10T13:09:43.600Z,6.26
2016-02-10T13:10:43.588Z,6.27
2016-02-10T13:11:43.527Z,6.3
2016-02-10T13:12:43.499Z,6.35
2016-02-10T13:13:43.486Z,6.35
2016-02-10T13:14:43.442Z,6.31
2016-02-10T13:15:43.429Z,6.35
2016-02-10T13:16:43.400Z,6.27
2016-02-10T13:17:43.371Z,6.3
2016-02-10T13:18:43.360Z,6.36
2016-02-10T13:19:43.316Z,6.38
2016-02-10T13:20:43.319Z,6.41